Flight Track Log - Related Links

Times and Time Zones

All times are in EDT time to prevent confusion due to time zone crossing. See the UAL3744 flight status page for this flight to view local times or setup timezone preferences in your user account.

Time Position Orientation Groundspeed Altitude Reporting Facility
EDT Latitude Longitude Course Direction KTS MPH feet Rate Location/Type
Mon 08:31:54 AM 38.9333 -77.5500 288° West 219 252 2,400  Level Potomac TRACON
Mon 08:32:42 AM 38.9086 -77.6325 249° West 268 308 4,100 2,778 Climbing Washington Center
Mon 08:33:42 AM 38.8883 -77.7197 253° West 274 315 7,400 2,850 Climbing Washington Center
Mon 08:34:42 AM 38.8472 -77.7986 236° Southwest 274 315 9,800 2,150 Climbing Washington Center
Mon 08:35:42 AM 38.8411 -77.9050 266° West 280 322 11,700 1,850 Climbing Washington Center
Mon 08:36:42 AM 38.8472 -78.0197 274° West 304 350 13,500 2,150 Climbing Washington Center
Mon 08:37:00 AM 38.8442 -78.1768 288° West  Level FlightAware Approximate
Mon 08:37:42 AM 38.8511 -78.1347 273° West 317 365 16,000  Level Washington Center
Mon 08:38:42 AM 38.8547 -78.2547 272° West 333 383 17,000 1,050 Climbing Washington Center
Mon 08:39:42 AM 38.8519 -78.3744 268° West 333 383 18,100 1,400 Climbing Washington Center
Mon 08:40:42 AM 38.8511 -78.4997 270° West 343 395 19,800 1,700 Climbing Washington Center
Mon 08:41:42 AM 38.8500 -78.6278 269° West 349 402 21,500 1,550 Climbing Washington Center
Mon 08:42:42 AM 38.8489 -78.7556 269° West 362 417 22,900 1,400 Climbing Washington Center
Mon 08:43:42 AM 38.8475 -78.8861 269° West 362 417 24,300 1,300 Climbing Washington Center
Mon 08:44:42 AM 38.8458 -79.0219 269° West 368 423 25,500 1,150 Climbing Washington Center
Mon 08:45:42 AM 38.8417 -79.1578 268° West 378 435 26,600 1,100 Climbing Washington Center
Mon 08:46:42 AM 38.8250 -79.2956 261° West 383 441 27,700 800 Climbing Washington Center
Mon 08:47:42 AM 38.7978 -79.4328 256° West 388 447 28,200 650 Climbing Washington Center
Mon 08:48:42 AM 38.7744 -79.5781 258° West 400 460 29,000 800 Climbing Washington Center
Mon 08:49:42 AM 38.7511 -79.7072 257° West 414 476 29,800 1,100 Climbing Washington Center
Mon 08:50:42 AM 38.7256 -79.8467 257° West 414 476 31,200 1,050 Climbing Washington Center
Mon 08:51:42 AM 38.6956 -79.9808 254° West 409 471 31,900 650 Climbing Washington Center
Mon 08:52:42 AM 38.6228 -80.0906 230° Southwest 394 453 32,500 750 Climbing Washington Center
Mon 08:53:42 AM 38.5331 -80.2047 225° Southwest 404 465 33,400 1,165 Climbing Washington Center
Mon 08:55:32 AM 38.4761 -80.4206 251° West 372 428 35,800 912 Climbing Indianapolis Center
Mon 08:56:33 AM 38.4642 -80.5583 264° West 373 429 36,000 98 Climbing Indianapolis Center
Mon 08:57:35 AM 38.4522 -80.6956 264° West 386 444 36,000  Level Indianapolis Center
Mon 08:58:36 AM 38.4392 -80.8372 263° West 399 459 36,000  Level Indianapolis Center
Mon 08:59:38 AM 38.4253 -80.9808 263° West 407 468 36,000  Level Indianapolis Center
Mon 09:00:40 AM 38.4128 -81.1217 264° West 400 460 36,000  Level Indianapolis Center
Mon 09:01:41 AM 38.3989 -81.2594 263° West 391 450 36,000  Level Indianapolis Center
Mon 09:02:43 AM 38.3856 -81.3975 263° West 388 447 36,000  Level Indianapolis Center
Mon 09:03:45 AM 38.3719 -81.5383 263° West 395 455 36,000  Level Indianapolis Center
Mon 09:04:46 AM 38.3581 -81.6814 263° West 401 461 36,000  Level Indianapolis Center
Mon 09:05:48 AM 38.3361 -81.8233 259° West 404 465 36,000  Level Indianapolis Center
Mon 09:06:50 AM 38.2892 -81.9867 250° West 409 471 36,000  Level Indianapolis Center
Mon 09:07:51 AM 38.2497 -82.1239 250° West 410 472 36,000  Level Indianapolis Center
Mon 09:08:53 AM 38.2111 -82.2644 251° West 418 481 36,000  Level Indianapolis Center
Mon 09:09:54 AM 38.1714 -82.4019 250° West 416 479 36,000  Level Indianapolis Center
Mon 09:10:56 AM 38.1308 -82.5406 250° West 417 480 36,000  Level Indianapolis Center
Mon 09:11:58 AM 38.0919 -82.6797 250° West 418 481 36,000  Level Indianapolis Center
Mon 09:12:59 AM 38.0522 -82.8167 250° West 416 479 36,000  Level Indianapolis Center
Mon 09:14:01 AM 38.0047 -82.9797 250° West 421 484 36,000  Level Indianapolis Center
Mon 09:15:03 AM 37.9644 -83.1158 249° West 412 474 36,000  Level Indianapolis Center
Mon 09:16:04 AM 37.9236 -83.2558 250° West 421 484 36,000  Level Indianapolis Center
Mon 09:17:06 AM 37.8833 -83.3936 250° West 419 482 36,000  Level Indianapolis Center
Mon 09:18:08 AM 37.8419 -83.5303 249° West 416 479 36,000  Level Indianapolis Center
Mon 09:19:10 AM 37.8017 -83.6681 250° West 416 479 36,000  Level Indianapolis Center
Mon 09:20:11 AM 37.7531 -83.8267 249° West 416 479 36,000  Level Indianapolis Center
Mon 09:21:13 AM 37.7139 -83.9619 250° West 412 474 36,000  Level Indianapolis Center
Mon 09:22:15 AM 37.6711 -84.0967 248° West 413 475 36,000  Level Indianapolis Center
Mon 09:23:17 AM 37.6303 -84.2328 249° West 413 475 36,000  Level Indianapolis Center
Mon 09:24:19 AM 37.5883 -84.3667 248° West 412 474 36,000  Level Indianapolis Center
Mon 09:25:21 AM 37.5400 -84.5256 249° West 416 479 36,000  Level Indianapolis Center
Mon 09:26:23 AM 37.4975 -84.6614 249° West 418 481 36,000  Level Indianapolis Center
Mon 09:27:25 AM 37.4550 -84.7992 249° West 420 483 36,000  Level Indianapolis Center
Mon 09:28:27 AM 37.4133 -84.9367 249° West 420 483 36,000  Level Indianapolis Center
Mon 09:29:29 AM 37.3697 -85.0747 248° West 423 487 36,000  Level Indianapolis Center
Mon 09:30:31 AM 37.3250 -85.2142 248° West 429 494 36,000  Level Indianapolis Center
Mon 09:31:33 AM 37.2739 -85.3747 248° West 426 490 36,000  Level Indianapolis Center
Mon 09:32:35 AM 37.2286 -85.5167 248° West 423 487 36,000  Level Indianapolis Center
Mon 09:33:37 AM 37.1842 -85.6567 248° West 427 491 36,000  Level Indianapolis Center
Mon 09:34:33 AM 37.1472 -85.7767 249° West 423 487 36,000  Level Memphis Center
Mon 09:35:34 AM 37.1022 -85.9119 247° West 418 481 36,000  Level Memphis Center
Mon 09:36:34 AM 37.0592 -86.0469 248° West 424 488 36,000  Level Memphis Center
Mon 09:37:33 AM 37.0136 -86.1794 247° West 419 482 36,000  Level Memphis Center
Mon 09:38:33 AM 36.9700 -86.3142 248° West 424 488 36,000  Level Memphis Center
Mon 09:39:34 AM 36.9244 -86.4514 247° West 424 488 36,000  Level Memphis Center
Mon 09:40:34 AM 36.8767 -86.5858 246° West 424 488 36,000  Level Memphis Center
Mon 09:41:33 AM 36.8267 -86.7283 246° West 419 482 36,000  Level Memphis Center
Mon 09:42:33 AM 36.7764 -86.8625 245° Southwest 424 488 36,000  Level Memphis Center
Mon 09:43:33 AM 36.7300 -86.9967 247° West 424 488 36,000  Level Memphis Center
Mon 09:44:34 AM 36.6814 -87.1281 245° Southwest 424 488 36,000  Level Memphis Center
Mon 09:45:34 AM 36.6328 -87.2619 246° West 424 488 36,000  Level Memphis Center
Mon 09:46:34 AM 36.5839 -87.3956 246° West 424 488 36,000  Level Memphis Center
Mon 09:47:34 AM 36.5347 -87.5239 245° Southwest 424 488 36,000  Level Memphis Center
Mon 09:48:33 AM 36.4856 -87.6572 245° Southwest 424 488 36,000  Level Memphis Center
Mon 09:49:34 AM 36.4364 -87.7903 245° Southwest 429 494 36,000  Level Memphis Center
Mon 09:50:34 AM 36.3867 -87.9183 244° Southwest 424 488 36,000  Level Memphis Center
Mon 09:51:34 AM 36.3392 -88.0486 246° West 424 488 36,000  Level Memphis Center
Mon 09:52:34 AM 36.2975 -88.1631 246° West 424 488 36,000  Level Memphis Center
Mon 09:53:33 AM 36.2436 -88.3033 245° Southwest 424 488 36,000  Level Memphis Center
Mon 09:54:33 AM 36.1917 -88.4358 244° Southwest 424 488 36,000  Level Memphis Center
Mon 09:55:33 AM 36.1414 -88.5656 244° Southwest 424 488 36,000  Level Memphis Center
Mon 09:56:34 AM 36.0911 -88.6953 244° Southwest 424 488 36,000  Level Memphis Center
Mon 09:57:33 AM 36.0406 -88.8244 244° Southwest 429 494 36,000  Level Memphis Center
Mon 09:58:34 AM 35.9900 -88.9511 244° Southwest 429 494 36,000  Level Memphis Center
Mon 09:59:33 AM 35.9394 -89.0828 245° Southwest 424 488 36,000  Level Memphis Center
Mon 10:00:33 AM 35.8906 -89.2092 245° Southwest 424 488 36,000  Level Memphis Center
Mon 10:01:33 AM 35.8417 -89.3403 245° Southwest 424 488 36,000  Level Memphis Center
Mon 10:02:34 AM 35.7883 -89.4664 242° Southwest 424 488 36,000  Level Memphis Center
Mon 10:03:34 AM 35.7372 -89.5950 244° Southwest 424 488 36,000  Level Memphis Center
Mon 10:04:33 AM 35.6981 -89.6975 245° Southwest 424 488 36,000  Level Memphis Center
Mon 10:05:33 AM 35.6486 -89.8383 247° West 413 475 36,000  Level Memphis Center
Mon 10:06:34 AM 35.5928 -89.9767 244° Southwest 413 475 36,000  Level Memphis Center
Mon 10:07:34 AM 35.5411 -90.1044 244° Southwest 418 481 36,000  Level Memphis Center
Mon 10:08:33 AM 35.4911 -90.2322 244° Southwest 423 487 36,000  Level Memphis Center
Mon 10:09:34 AM 35.4392 -90.3622 244° Southwest 423 487 36,000  Level Memphis Center
Mon 10:10:34 AM 35.3869 -90.4919 244° Southwest 423 487 36,000  Level Memphis Center
Mon 10:11:34 AM 35.3325 -90.6142 241° Southwest 423 487 36,000  Level Memphis Center
Mon 10:12:34 AM 35.2822 -90.7436 245° Southwest 423 487 36,000  Level Memphis Center
Mon 10:13:34 AM 35.2294 -90.8706 243° Southwest 423 487 36,000  Level Memphis Center
Mon 10:14:34 AM 35.1789 -90.9922 243° Southwest 423 487 36,000  Level Memphis Center
Mon 10:15:33 AM 35.1281 -91.1161 243° Southwest 409 471 36,000  Level Memphis Center
Mon 10:16:33 AM 35.0772 -91.2400 243° Southwest 404 465 36,000  Level Memphis Center
Mon 10:17:34 AM 35.0264 -91.3639 243° Southwest 404 465 36,000  Level Memphis Center
Mon 10:18:34 AM 34.9731 -91.4747 240° Southwest 397 457 36,000  Level Memphis Center
Mon 10:19:33 AM 34.9242 -91.5956 244° Southwest 392 451 36,000  Level Memphis Center
Mon 10:20:34 AM 34.8811 -91.7089 245° Southwest 401 461 36,000  Level Memphis Center
Mon 10:21:34 AM 34.8233 -91.8369 241° Southwest 401 461 36,000  Level Memphis Center
Mon 10:22:34 AM 34.7719 -91.9575 243° Southwest 401 461 36,000  Level Memphis Center
Mon 10:23:34 AM 34.7222 -92.0778 243° Southwest 401 461 36,000  Level Memphis Center
Mon 10:24:34 AM 34.6769 -92.1831 242° Southwest 401 461 36,000  Level Memphis Center
Mon 10:25:34 AM 34.6439 -92.3058 252° West 396 456 36,000  Level Memphis Center
Mon 10:26:33 AM 34.6106 -92.4314 252° West 391 450 36,000  Level Memphis Center
Mon 10:27:34 AM 34.5769 -92.5567 252° West 386 444 36,000  Level Memphis Center
Mon 10:28:34 AM 34.5436 -92.6794 252° West 386 444 36,000  Level Memphis Center
Mon 10:29:34 AM 34.5119 -92.8019 253° West 381 438 36,000  Level Memphis Center
Mon 10:30:34 AM 34.4783 -92.9219 251° West 381 438 36,000  Level Memphis Center
Mon 10:31:34 AM 34.4464 -93.0419 252° West 387 445 36,000  Level Memphis Center
Mon 10:32:34 AM 34.4144 -93.1692 253° West 382 440 36,000  Level Memphis Center
Mon 10:33:34 AM 34.3806 -93.2889 251° West 382 440 36,000  Level Memphis Center
Mon 10:34:18 AM 34.3553 -93.3936 254° West 382 440 36,000  Level Fort Worth Center
Mon 10:35:18 AM 34.3214 -93.5158 251° West 370 426 36,000  Level Fort Worth Center
Mon 10:36:18 AM 34.2897 -93.6356 252° West 375 432 36,000  Level Fort Worth Center
Mon 10:37:18 AM 34.2558 -93.7575 251° West 375 432 36,000  Level Fort Worth Center
Mon 10:38:18 AM 34.2217 -93.8797 251° West 381 438 36,000  Level Fort Worth Center
Mon 10:39:18 AM 34.1894 -93.9989 252° West 386 444 36,000  Level Fort Worth Center
Mon 10:40:18 AM 34.1553 -94.1208 251° West 386 444 36,000 -50 Level Fort Worth Center
Mon 10:41:18 AM 34.1208 -94.2400 251° West 391 450 35,900 -800 Descending Fort Worth Center
Mon 10:42:18 AM 34.0842 -94.3642 250° West 391 450 34,400 -1,450 Descending Fort Worth Center
Mon 10:43:18 AM 34.0475 -94.4933 251° West 391 450 33,000 -1,450 Descending Fort Worth Center
Mon 10:44:18 AM 34.0131 -94.6222 252° West 396 456 31,500 -1,550 Descending Fort Worth Center
Mon 10:45:18 AM 33.9742 -94.7511 250° West 402 463 29,900 -1,500 Descending Fort Worth Center
Mon 10:46:18 AM 33.9372 -94.8825 251° West 410 472 28,500 -1,450 Descending Fort Worth Center
Mon 10:47:18 AM 33.8936 -95.0089 247° West 410 472 27,000 -1,550 Descending Fort Worth Center
Mon 10:48:18 AM 33.8500 -95.1350 247° West 410 472 25,400 -1,500 Descending Fort Worth Center
Mon 10:49:18 AM 33.8083 -95.2561 248° West 410 472 24,000 -1,200 Descending Fort Worth Center
Mon 10:50:18 AM 33.7644 -95.3747 246° West 403 464 23,000 -1,250 Descending Fort Worth Center
Mon 10:51:18 AM 33.7225 -95.4956 247° West 397 457 21,500 -1,450 Descending Fort Worth Center
Mon 10:52:18 AM 33.6867 -95.6136 250° West 397 457 20,100 -1,500 Descending Fort Worth Center
Mon 10:53:18 AM 33.6403 -95.7319 245° Southwest 397 457 18,500 -1,600 Descending Fort Worth Center
Mon 10:54:18 AM 33.6022 -95.8447 248° West 387 445 16,900 -1,700 Descending Fort Worth Center
Mon 10:55:18 AM 33.5597 -95.9553 245° Southwest 375 432 15,100 -1,700 Descending Fort Worth Center
Mon 10:56:18 AM 33.5253 -96.0556 248° West 370 426 13,500 -1,700 Descending Fort Worth Center
Mon 10:57:18 AM 33.4828 -96.1731 247° West 358 412 11,700 -1,250 Descending Fort Worth Center
Mon 10:58:18 AM 33.4461 -96.2683 245° Southwest 358 412 11,000 -350 Descending Fort Worth Center
Mon 10:59:18 AM 33.4072 -96.3783 247° West 350 403 11,000  Level Fort Worth Center
Mon 11:00:18 AM 33.3619 -96.4458 231° Southwest 305 351 11,000 -200 Level Fort Worth Center
Mon 11:01:18 AM 33.3019 -96.5161 224° Southwest 285 328 10,600 -850 Descending Fort Worth Center
Mon 11:02:18 AM 33.2544 -96.5886 232° Southwest 277 319 9,300 -1,300 Descending Fort Worth Center
Mon 11:03:18 AM 33.2361 -96.6658 254° West 272 313 8,000 -1,450 Descending Fort Worth Center
Mon 11:04:18 AM 33.2136 -96.7628 255° West 272 313 6,400 -1,000 Descending Fort Worth Center
Mon 11:05:18 AM 33.1994 -96.8375 257° West 272 313 6,000 -200 Descending Fort Worth Center
Mon 11:06:18 AM 33.1811 -96.9219 255° West 272 313 6,000 -400 Level Fort Worth Center
Mon 11:07:18 AM 33.1436 -96.9992 240° Southwest 252 290 5,200 -1,050 Descending Fort Worth Center
Mon 11:08:18 AM 33.0894 -97.0267 203° Southwest 234 269 3,900 -1,212 Descending Fort Worth Center
Mon 11:09:02 AM 33.0500 -97.0333 188° South 160 184 3,100 -764 Descending Dallas / Fort Worth TRACON
Mon 11:10:08 AM 33.0167 -97.0333 180° South 122 140 2,500 -614 Descending Dallas / Fort Worth TRACON
Mon 11:11:09 AM 32.9833 -97.0333 180° South 126 145 1,800 -678 Descending Dallas / Fort Worth TRACON
Mon 11:12:03 AM 32.9500 -97.0333 180° South 125 144 1,200 -264 Descending Dallas / Fort Worth TRACON
Mon 11:14:00 AM 32.8968 -97.0380 185° South  Level Estimated
Mon 11:16:04 AM 32.9167 -96.9833 185° South 9 10 500  Level Dallas / Fort Worth TRACON
Mon 11:18:00 AM 32.8833 -97.0333 185° South  Level FlightAware Approximate
Mon 11:21:00 AM 32.8968 -97.0380 185° South  Level Estimated
Mon 11:25:00 AM 32.8968 -97.0380 185° South  Level Estimated

Login

Don't have an account? Register now (free) for customized features, flight alerts, and more!